Time;durP1;ratioP1;P1;durP2;ratioP2;P2;SDS_P1;SDS_P2;PMS_P1;PMS_P2;Temp;Humidity;BMP_temperature;BMP_pressure;BME280_temperature;BME280_humidity;BME280_pressure;Samples;Min_cycle;Max_cycle;Signal;HPM_P1;HPM_P2
2022/10/30 00:01:09;;;;;;;0.70;0.70;;;11.40;99.90;;;;;;5087770;28;20743;-80
2022/10/30 00:03:35;;;;;;;0.60;0.60;;;11.40;99.90;;;;;;5087506;28;20238;-79
2022/10/30 00:06:04;;;;;;;0.60;0.60;;;11.40;99.90;;;;;;5080650;28;20170;-80
2022/10/30 00:08:30;;;;;;;0.60;0.60;;;11.40;99.90;;;;;;5079804;28;20280;-79
2022/10/30 00:10:56;;;;;;;0.70;0.70;;;11.40;99.90;;;;;;5058795;28;20283;-77
2022/10/30 00:13:21;;;;;;;0.63;0.63;;;11.40;99.90;;;;;;5074430;28;20222;-78
2022/10/30 00:15:51;;;;;;;0.60;0.60;;;11.40;99.90;;;;;;5074426;28;20186;-78
2022/10/30 00:18:18;;;;;;;0.50;0.50;;;11.30;99.90;;;;;;5074238;28;20206;-79
2022/10/30 00:20:43;;;;;;;0.53;0.53;;;11.30;99.90;;;;;;5075834;28;20225;-79
2022/10/30 00:23:09;;;;;;;0.57;0.57;;;11.30;99.90;;;;;;5073629;28;20170;-81
2022/10/30 00:25:35;;;;;;;0.50;0.50;;;11.40;99.90;;;;;;5077692;28;20179;-80
2022/10/30 00:28:04;;;;;;;0.67;0.67;;;11.40;99.90;;;;;;5077926;28;20193;-80
2022/10/30 00:30:32;;;;;;;0.67;0.67;;;11.40;99.90;;;;;;5077258;28;20222;-79
2022/10/30 00:32:58;;;;;;;0.70;0.70;;;11.40;99.90;;;;;;5078564;28;20182;-79
2022/10/30 00:35:23;;;;;;;0.53;0.53;;;11.40;99.90;;;;;;5077943;28;20182;-81
2022/10/30 00:37:49;;;;;;;0.60;0.60;;;11.40;99.90;;;;;;5078733;28;20210;-81
2022/10/30 00:40:15;;;;;;;0.50;0.50;;;11.40;99.90;;;;;;5077120;28;20218;-78
2022/10/30 00:42:41;;;;;;;0.70;0.70;;;11.30;99.90;;;;;;5077220;28;20170;-80
2022/10/30 00:45:11;;;;;;;0.60;0.60;;;11.20;99.90;;;;;;5079053;28;20246;-81
2022/10/30 00:47:42;;;;;;;0.50;0.50;;;11.20;99.90;;;;;;5078784;28;20179;-81
2022/10/30 00:50:18;;;;;;;0.57;0.57;;;11.20;99.90;;;;;;5065295;28;20183;-81
2022/10/30 00:52:46;;;;;;;0.50;0.50;;;11.30;99.90;;;;;;5068862;28;20178;-79
2022/10/30 00:55:15;;;;;;;0.50;0.50;;;11.20;99.90;;;;;;5070376;28;20178;-80
2022/10/30 00:57:42;;;;;;;0.50;0.50;;;11.20;99.90;;;;;;5078865;28;20246;-80
2022/10/30 01:00:09;;;;;;;0.60;0.60;;;11.20;99.90;;;;;;5077685;28;20218;-81
2022/10/30 01:02:36;;;;;;;0.53;0.53;;;11.20;99.90;;;;;;5077094;28;20656;-79
2022/10/30 01:05:02;;;;;;;0.63;0.63;;;11.20;99.90;;;;;;5077748;28;20186;-81
2022/10/30 01:07:29;;;;;;;0.53;0.53;;;11.30;99.90;;;;;;5078199;28;20177;-81
2022/10/30 01:09:54;;;;;;;0.63;0.63;;;11.20;99.90;;;;;;5075166;28;20636;-81
2022/10/30 01:12:20;;;;;;;0.60;0.60;;;11.30;99.90;;;;;;5083024;28;20196;-80
2022/10/30 01:14:52;;;;;;;0.50;0.50;;;11.20;99.90;;;;;;5087528;28;20178;-80
2022/10/30 01:17:54;;;;;;;0.60;0.60;;;11.10;99.90;;;;;;5088912;28;20178;-79
2022/10/30 01:20:44;;;;;;;0.50;0.50;;;11.10;99.90;;;;;;5087752;28;20269;-79
2022/10/30 01:23:34;;;;;;;0.70;0.70;;;11.10;99.90;;;;;;5084146;28;20193;-80
2022/10/30 01:26:13;;;;;;;0.60;0.60;;;11.00;99.90;;;;;;5083209;28;20207;-81
2022/10/30 01:28:54;;;;;;;0.50;0.50;;;11.10;99.90;;;;;;5079346;28;20179;-79
2022/10/30 01:31:38;;;;;;;0.60;0.60;;;11.20;99.90;;;;;;5076606;28;20693;-82
2022/10/30 01:34:20;;;;;;;0.50;0.50;;;11.20;99.90;;;;;;5069498;28;20189;-80
2022/10/30 01:36:58;;;;;;;0.60;0.60;;;11.10;99.90;;;;;;5078228;28;20259;-80
2022/10/30 01:39:35;;;;;;;0.60;0.60;;;11.00;99.90;;;;;;5076754;28;20264;-83
2022/10/30 01:42:09;;;;;;;0.60;0.60;;;10.90;99.90;;;;;;5075763;28;20319;-81
2022/10/30 01:44:35;;;;;;;0.60;0.60;;;10.80;99.90;;;;;;5077297;28;20181;-80
2022/10/30 01:47:25;;;;;;;0.63;0.63;;;10.80;99.90;;;;;;5078809;28;20178;-80
2022/10/30 01:50:08;;;;;;;0.50;0.50;;;10.80;99.90;;;;;;5078353;28;20224;-81
2022/10/30 01:53:02;;;;;;;0.60;0.60;;;10.80;99.90;;;;;;5079646;28;20178;-81
2022/10/30 01:55:31;;;;;;;0.67;0.67;;;10.80;99.90;;;;;;5082445;28;20174;-82
2022/10/30 01:58:14;;;;;;;0.77;0.77;;;10.90;99.90;;;;;;5081511;28;20182;-79
2022/10/30 02:00:40;;;;;;;0.60;0.60;;;10.80;99.90;;;;;;5085541;28;20214;-79
2022/10/30 02:03:06;;;;;;;0.60;0.60;;;10.90;99.90;;;;;;5085883;28;20182;-80
2022/10/30 02:05:46;;;;;;;0.50;0.50;;;10.80;99.90;;;;;;5078083;28;20242;-79
2022/10/30 02:08:12;;;;;;;0.63;0.63;;;10.80;99.90;;;;;;5060092;28;20293;-81
2022/10/30 02:10:38;;;;;;;0.60;0.60;;;10.90;99.90;;;;;;5075285;28;20229;-80
2022/10/30 02:13:04;;;;;;;0.60;0.60;;;10.90;99.90;;;;;;5075059;28;20197;-81
2022/10/30 02:15:30;;;;;;;0.50;0.50;;;10.90;99.90;;;;;;5074578;28;20182;-81
2022/10/30 02:17:56;;;;;;;0.60;0.60;;;10.80;99.90;;;;;;5074581;28;20562;-80
2022/10/30 02:20:22;;;;;;;0.53;0.53;;;10.80;99.90;;;;;;5073581;28;20214;-79
2022/10/30 02:22:48;;;;;;;0.60;0.60;;;10.80;99.90;;;;;;5073551;28;20216;-80
2022/10/30 02:25:14;;;;;;;0.60;0.60;;;10.80;99.90;;;;;;5077317;28;20182;-78
2022/10/30 02:27:40;;;;;;;0.70;0.70;;;10.90;99.90;;;;;;5073362;28;20182;-79
2022/10/30 02:30:06;;;;;;;0.60;0.60;;;10.90;99.90;;;;;;5073152;28;20193;-77
2022/10/30 02:32:32;;;;;;;0.67;0.67;;;10.80;99.90;;;;;;5072466;28;20170;-79
2022/10/30 02:34:57;;;;;;;0.50;0.50;;;10.90;99.90;;;;;;5075206;28;20212;-79
2022/10/30 02:37:23;;;;;;;0.60;0.60;;;10.90;99.90;;;;;;5076888;28;20216;-78
2022/10/30 02:39:49;;;;;;;0.77;0.77;;;10.90;99.90;;;;;;5076878;28;20669;-79
2022/10/30 02:42:15;;;;;;;0.60;0.60;;;10.90;99.90;;;;;;5077095;28;20208;-80
2022/10/30 02:44:40;;;;;;;0.70;0.70;;;10.90;99.90;;;;;;5077688;28;20178;-81
2022/10/30 02:47:06;;;;;;;0.63;0.63;;;10.90;99.90;;;;;;5077095;28;20205;-81
2022/10/30 02:49:31;;;;;;;0.70;0.70;;;11.00;99.90;;;;;;5076267;28;20189;-80
2022/10/30 02:51:57;;;;;;;0.60;0.60;;;11.00;99.90;;;;;;5075086;28;20199;-78
2022/10/30 02:54:22;;;;;;;0.70;0.70;;;11.00;99.90;;;;;;5074779;28;20185;-80
2022/10/30 02:56:48;;;;;;;0.50;0.50;;;11.00;99.90;;;;;;5075622;28;20202;-79
2022/10/30 02:59:13;;;;;;;0.60;0.60;;;11.00;99.90;;;;;;5076815;28;20206;-80
2022/10/30 03:01:39;;;;;;;0.50;0.50;;;10.90;99.90;;;;;;5078422;28;20533;-81
2022/10/30 03:04:05;;;;;;;0.50;0.50;;;10.90;99.90;;;;;;5078715;28;20652;-80
2022/10/30 03:06:30;;;;;;;0.57;0.57;;;10.90;99.90;;;;;;5077854;28;20258;-82
2022/10/30 03:08:56;;;;;;;0.70;0.70;;;10.90;99.90;;;;;;5077440;28;20596;-81
2022/10/30 03:11:21;;;;;;;0.60;0.60;;;10.80;99.90;;;;;;5077230;28;20679;-81
2022/10/30 03:13:48;;;;;;;0.60;0.60;;;10.80;99.90;;;;;;5077044;28;20190;-81
2022/10/30 03:16:15;;;;;;;0.60;0.60;;;10.80;99.90;;;;;;5077420;28;20201;-80
2022/10/30 03:18:41;;;;;;;0.50;0.50;;;10.80;99.90;;;;;;5079151;28;20283;-82
2022/10/30 03:21:08;;;;;;;0.60;0.60;;;10.70;99.90;;;;;;5079181;28;20202;-80
2022/10/30 03:23:34;;;;;;;0.60;0.60;;;10.70;99.90;;;;;;5080431;28;20186;-80
2022/10/30 03:26:00;;;;;;;0.50;0.50;;;10.70;99.90;;;;;;5078526;28;20179;-80
2022/10/30 03:28:28;;;;;;;0.60;0.60;;;10.70;99.90;;;;;;5081572;28;20185;-81
2022/10/30 03:31:06;;;;;;;0.60;0.60;;;10.60;99.90;;;;;;5078208;28;20627;-81
2022/10/30 03:33:32;;;;;;;0.60;0.60;;;10.70;99.90;;;;;;5084663;28;20600;-82
2022/10/30 03:35:58;;;;;;;0.60;0.60;;;10.60;99.90;;;;;;5083080;28;20190;-82
2022/10/30 03:38:24;;;;;;;0.60;0.60;;;10.60;99.90;;;;;;5080130;28;20708;-81
2022/10/30 03:40:50;;;;;;;0.53;0.53;;;10.60;99.90;;;;;;5079763;28;20199;-81
2022/10/30 03:43:16;;;;;;;0.60;0.60;;;10.70;99.90;;;;;;5079694;28;20177;-80
2022/10/30 03:45:47;;;;;;;0.50;0.50;;;10.80;99.90;;;;;;5077810;28;20179;-80
2022/10/30 03:48:12;;;;;;;0.60;0.60;;;10.80;99.90;;;;;;5077768;28;20189;-80
2022/10/30 03:50:38;;;;;;;0.60;0.60;;;10.80;99.90;;;;;;5078833;28;20198;-80
2022/10/30 03:53:03;;;;;;;0.60;0.60;;;10.90;99.90;;;;;;5079656;28;20189;-80
2022/10/30 03:55:29;;;;;;;0.50;0.50;;;10.80;99.90;;;;;;5078797;28;20545;-81
2022/10/30 03:57:55;;;;;;;0.60;0.60;;;10.70;99.90;;;;;;5077906;28;20175;-79
2022/10/30 04:00:20;;;;;;;0.50;0.50;;;10.70;99.90;;;;;;5077488;28;20271;-79
2022/10/30 04:02:47;;;;;;;0.63;0.63;;;10.70;99.90;;;;;;5077136;28;20174;-81
2022/10/30 04:05:15;;;;;;;0.60;0.60;;;10.60;99.90;;;;;;5075849;28;20178;-79
2022/10/30 04:07:40;;;;;;;0.60;0.60;;;10.60;99.90;;;;;;5079119;28;20174;-80
2022/10/30 04:10:06;;;;;;;0.50;0.50;;;10.50;99.90;;;;;;5079162;28;20468;-81
2022/10/30 04:12:32;;;;;;;0.60;0.60;;;10.50;99.90;;;;;;5097390;22;20229;-77
2022/10/30 04:14:57;;;;;;;0.50;0.50;;;10.30;99.90;;;;;;5072428;28;20666;-77
2022/10/30 04:17:23;;;;;;;0.60;0.60;;;10.30;99.90;;;;;;5075398;28;20197;-77
2022/10/30 04:19:48;;;;;;;0.60;0.60;;;10.20;99.90;;;;;;5067891;28;20790;-77
2022/10/30 04:22:14;;;;;;;0.80;0.80;;;10.20;99.90;;;;;;5057065;28;20199;-77
2022/10/30 04:24:39;;;;;;;0.70;0.70;;;10.10;99.90;;;;;;5056309;28;20186;-77
2022/10/30 04:27:05;;;;;;;0.60;0.60;;;10.10;99.90;;;;;;5055291;28;20186;-76
2022/10/30 04:29:30;;;;;;;0.70;0.70;;;10.20;99.90;;;;;;5053482;28;20532;-77
2022/10/30 04:31:56;;;;;;;0.60;0.60;;;10.10;99.90;;;;;;5053253;28;20289;-76
2022/10/30 04:34:22;;;;;;;0.60;0.60;;;10.00;99.90;;;;;;5053366;28;20611;-76
2022/10/30 04:36:47;;;;;;;0.60;0.60;;;10.00;99.90;;;;;;5053089;28;20645;-76
2022/10/30 04:39:13;;;;;;;0.70;0.70;;;9.90;99.90;;;;;;5053262;28;20264;-76
2022/10/30 04:41:38;;;;;;;0.50;0.50;;;9.90;99.90;;;;;;5052415;28;20356;-76
2022/10/30 04:44:04;;;;;;;0.60;0.60;;;10.00;99.90;;;;;;5053128;28;20227;-76
2022/10/30 04:46:31;;;;;;;0.60;0.60;;;10.00;99.90;;;;;;5053256;28;20182;-76
2022/10/30 04:48:57;;;;;;;0.60;0.60;;;;;;;;;;5052761;28;20640;-76
2022/10/30 04:51:23;;;;;;;0.60;0.60;;;10.00;99.90;;;;;;5052389;28;20219;-76
2022/10/30 04:53:48;;;;;;;0.60;0.60;;;9.90;99.90;;;;;;5052891;28;20648;-76
2022/10/30 04:56:15;;;;;;;0.60;0.60;;;9.90;99.90;;;;;;5052820;28;20190;-76
2022/10/30 04:58:40;;;;;;;0.50;0.50;;;9.90;99.90;;;;;;5052788;28;20215;-76
2022/10/30 05:01:06;;;;;;;0.60;0.60;;;9.80;99.90;;;;;;5052219;28;20210;-76
2022/10/30 05:03:32;;;;;;;0.60;0.60;;;9.70;99.90;;;;;;5052558;28;20210;-76
2022/10/30 05:06:06;;;;;;;0.50;0.50;;;9.70;99.90;;;;;;5052676;28;20640;-76
2022/10/30 05:08:32;;;;;;;0.50;0.50;;;9.60;99.90;;;;;;5052796;28;20190;-76
2022/10/30 05:10:58;;;;;;;0.60;0.60;;;9.60;99.90;;;;;;5051880;28;20272;-76
2022/10/30 05:13:24;;;;;;;0.50;0.50;;;9.60;99.90;;;;;;5060352;28;20198;-75
2022/10/30 05:15:49;;;;;;;0.60;0.60;;;9.50;99.90;;;;;;5052445;28;20175;-75
2022/10/30 05:18:15;;;;;;;0.60;0.60;;;9.50;99.90;;;;;;5052499;28;20233;-75
2022/10/30 05:20:40;;;;;;;0.60;0.60;;;9.50;99.90;;;;;;5051903;28;20202;-75
2022/10/30 05:23:06;;;;;;;0.70;0.70;;;9.40;99.90;;;;;;5052214;28;20579;-76
2022/10/30 05:25:31;;;;;;;0.50;0.50;;;9.40;99.90;;;;;;5051935;28;20604;-76
2022/10/30 05:28:02;;;;;;;0.50;0.50;;;9.40;99.90;;;;;;5052139;28;20175;-76
2022/10/30 05:30:29;;;;;;;0.50;0.50;;;9.40;99.90;;;;;;5051683;28;20191;-76
2022/10/30 05:33:04;;;;;;;0.50;0.50;;;9.40;99.90;;;;;;5052386;28;20183;-75
2022/10/30 05:35:34;;;;;;;0.60;0.60;;;9.30;99.90;;;;;;5052013;28;20658;-76
2022/10/30 05:38:00;;;;;;;0.70;0.70;;;9.30;99.90;;;;;;5051988;28;20186;-75
2022/10/30 05:40:27;;;;;;;0.60;0.60;;;9.20;99.90;;;;;;5051301;28;20254;-75
2022/10/30 05:42:52;;;;;;;0.50;0.50;;;9.20;99.90;;;;;;5052130;28;20599;-75
2022/10/30 05:45:18;;;;;;;0.50;0.50;;;9.20;99.90;;;;;;5051824;28;20191;-75
2022/10/30 05:47:56;;;;;;;0.50;0.50;;;9.40;99.90;;;;;;5051514;28;20186;-75
2022/10/30 05:50:22;;;;;;;0.50;0.50;;;9.40;99.90;;;;;;5051328;28;20199;-76
2022/10/30 05:52:47;;;;;;;0.70;0.70;;;9.30;99.90;;;;;;5051934;28;20543;-75
2022/10/30 05:55:13;;;;;;;0.60;0.60;;;9.20;99.90;;;;;;5033139;28;20644;-76
2022/10/30 05:57:39;;;;;;;0.60;0.60;;;9.20;99.90;;;;;;5051811;28;20229;-76
2022/10/30 06:00:05;;;;;;;0.53;0.53;;;9.30;99.90;;;;;;5051097;28;20211;-76
2022/10/30 06:02:31;;;;;;;0.67;0.67;;;9.40;99.90;;;;;;5033654;28;20189;-77
2022/10/30 06:04:57;;;;;;;0.70;0.70;;;9.20;99.90;;;;;;5051707;28;20190;-76
2022/10/30 06:07:22;;;;;;;0.70;0.70;;;9.20;99.90;;;;;;5051512;28;20184;-75
2022/10/30 06:09:48;;;;;;;0.60;0.60;;;9.10;99.90;;;;;;5051128;28;20205;-75
2022/10/30 06:12:13;;;;;;;0.60;0.60;;;9.10;99.90;;;;;;5051371;28;20213;-75
2022/10/30 06:14:39;;;;;;;0.60;0.60;;;9.10;99.90;;;;;;5051465;28;20175;-75
2022/10/30 06:17:04;;;;;;;0.60;0.60;;;9.10;99.90;;;;;;5051268;28;20185;-75
2022/10/30 06:19:30;;;;;;;0.77;0.77;;;9.20;99.90;;;;;;5050932;28;20234;-75
2022/10/30 06:21:56;;;;;;;0.60;0.60;;;8.60;99.90;;;;;;5051553;28;20217;-76
2022/10/30 06:24:21;;;;;;;0.60;0.60;;;9.30;99.90;;;;;;5051188;28;20179;-76
2022/10/30 06:26:47;;;;;;;0.60;0.60;;;9.20;99.90;;;;;;5050831;28;20186;-76
2022/10/30 06:29:12;;;;;;;0.60;0.60;;;9.20;99.90;;;;;;5051130;28;20175;-76
2022/10/30 06:31:38;;;;;;;0.70;0.70;;;9.20;99.90;;;;;;5050598;28;20230;-76
2022/10/30 06:34:04;;;;;;;0.60;0.60;;;9.30;99.90;;;;;;5051130;28;20266;-75
2022/10/30 06:36:29;;;;;;;0.60;0.60;;;9.30;99.90;;;;;;5051309;28;20179;-76
2022/10/30 06:38:55;;;;;;;0.53;0.53;;;9.40;99.90;;;;;;5051235;28;20203;-75
2022/10/30 06:41:20;;;;;;;0.63;0.63;;;9.50;99.90;;;;;;5048445;28;20203;-75
2022/10/30 06:43:46;;;;;;;0.50;0.50;;;9.70;99.90;;;;;;5032780;28;20881;-76
2022/10/30 06:46:12;;;;;;;0.60;0.60;;;9.80;99.90;;;;;;5050673;28;20262;-76
2022/10/30 06:48:37;;;;;;;0.57;0.57;;;10.10;99.90;;;;;;5050971;28;20567;-76
2022/10/30 06:51:03;;;;;;;0.50;0.50;;;10.70;99.90;;;;;;5050699;28;20245;-76
2022/10/30 06:53:28;;;;;;;0.50;0.50;;;11.50;99.90;;;;;;5051241;28;20642;-76
2022/10/30 06:55:55;;;;;;;0.40;0.40;;;12.50;99.90;;;;;;5051053;28;20186;-76
2022/10/30 06:58:21;;;;;;;0.40;0.40;;;13.10;30.00;;;;;;5051192;28;20237;-77
2022/10/30 07:00:47;;;;;;;0.47;0.47;;;13.70;1.00;;;;;;5050552;28;20210;-76
2022/10/30 07:03:12;;;;;;;0.30;0.30;;;13.60;1.00;;;;;;5051130;28;20647;-77
2022/10/30 07:05:38;;;;;;;0.30;0.30;;;14.50;1.00;;;;;;5052454;28;20164;-77
2022/10/30 07:08:03;;;;;;;0.30;0.30;;;14.50;1.00;;;;;;5053405;28;20620;-76
2022/10/30 07:10:29;;;;;;;0.30;0.30;;;14.80;99.90;;;;;;5054501;28;20321;-77
2022/10/30 07:12:55;;;;;;;0.23;0.23;;;15.40;99.90;;;;;;5055365;28;20686;-77
2022/10/30 07:15:21;;;;;;;0.30;0.30;;;16.00;99.90;;;;;;5055602;28;20179;-78
2022/10/30 07:17:52;;;;;;;0.30;0.30;;;15.60;1.00;;;;;;5054895;28;20189;-77
2022/10/30 07:20:17;;;;;;;0.30;0.30;;;16.50;1.00;;;;;;5058777;28;20214;-77
2022/10/30 07:22:43;;;;;;;0.50;0.50;;;15.70;99.90;;;;;;5060954;28;20259;-79
2022/10/30 07:25:08;;;;;;;0.50;0.50;;;15.70;99.90;;;;;;5050792;28;20194;-78
2022/10/30 07:27:42;;;;;;;0.40;0.40;;;16.20;1.00;;;;;;5053945;28;20190;-77
2022/10/30 07:30:08;;;;;;;0.37;0.37;;;15.30;1.00;;;;;;5044677;28;20187;-77
2022/10/30 07:32:33;;;;;;;0.47;0.47;;;14.70;1.00;;;;;;5052440;28;20171;-78
2022/10/30 07:34:59;;;;;;;0.30;0.30;;;14.50;1.00;;;;;;5049381;28;20207;-78
2022/10/30 07:37:24;;;;;;;0.30;0.30;;;14.60;1.00;;;;;;5053311;28;20182;-78
2022/10/30 07:39:50;;;;;;;0.30;0.30;;;14.40;1.00;;;;;;5059868;28;20206;-77
2022/10/30 07:42:15;;;;;;;0.40;0.40;;;14.60;1.00;;;;;;5048525;28;20890;-78
2022/10/30 07:44:41;;;;;;;0.30;0.30;;;14.90;1.00;;;;;;5049503;28;20190;-78
2022/10/30 07:47:06;;;;;;;0.40;0.40;;;14.60;1.00;;;;;;5050724;28;20187;-78
2022/10/30 07:49:32;;;;;;;0.40;0.40;;;14.00;1.00;;;;;;5050192;28;20179;-77
2022/10/30 07:51:57;;;;;;;0.30;0.30;;;14.00;1.00;;;;;;5057470;28;20233;-79
2022/10/30 07:54:23;;;;;;;0.40;0.40;;;14.00;1.00;;;;;;5058073;28;20265;-78
2022/10/30 07:56:48;;;;;;;0.40;0.40;;;14.10;19.40;;;;;;5059647;28;20588;-78
2022/10/30 07:59:14;;;;;;;0.40;0.40;;;14.80;1.00;;;;;;5058957;28;20878;-80
2022/10/30 08:01:39;;;;;;;0.30;0.30;;;15.60;1.00;;;;;;5064724;28;20190;-79
2022/10/30 08:04:05;;;;;;;0.33;0.33;;;16.20;1.00;;;;;;5065116;28;20197;-82
2022/10/30 08:06:30;;;;;;;0.40;0.40;;;16.80;79.30;;;;;;5058503;28;20171;-79
2022/10/30 08:08:56;;;;;;;0.40;0.40;;;16.90;99.90;;;;;;5059955;28;20414;-76
2022/10/30 08:11:22;;;;;;;0.30;0.30;;;16.90;1.00;;;;;;5060320;28;20207;-79
2022/10/30 08:13:47;;;;;;;0.40;0.40;;;16.70;99.90;;;;;;5056437;28;20207;-78
2022/10/30 08:16:13;;;;;;;0.50;0.50;;;16.90;99.90;;;;;;5056416;28;20179;-78
2022/10/30 08:18:41;;;;;;;0.50;0.50;;;16.90;1.00;;;;;;5055035;28;20222;-77
2022/10/30 08:21:07;;;;;;;0.50;0.50;;;17.80;99.90;;;;;;5056688;28;20199;-78
2022/10/30 08:23:32;;;;;;;0.40;0.40;;;18.30;1.00;;;;;;5057497;28;20260;-78
2022/10/30 08:26:00;;;;;;;0.40;0.40;;;19.20;1.00;;;;;;5057966;28;20563;-77
2022/10/30 08:28:27;;;;;;;0.60;0.60;;;19.20;1.00;;;;;;5059590;28;20566;-77
2022/10/30 08:30:53;;;;;;;0.43;0.43;;;19.10;1.00;;;;;;5051406;28;20202;-78
2022/10/30 08:33:19;;;;;;;0.50;0.50;;;20.10;99.90;;;;;;5055864;28;20253;-80
2022/10/30 08:35:53;;;;;;;0.40;0.40;;;20.40;99.90;;;;;;5058334;28;20175;-80
2022/10/30 08:38:18;;;;;;;0.60;0.60;;;20.20;99.90;;;;;;5056478;28;20274;-79
2022/10/30 08:40:44;;;;;;;0.70;0.70;;;19.60;99.90;;;;;;5056342;28;20245;-79
2022/10/30 08:43:10;;;;;;;0.60;0.60;;;19.60;99.90;;;;;;5053424;28;20175;-78
2022/10/30 08:45:36;;;;;;;0.50;0.50;;;19.20;1.00;;;;;;5048823;28;20182;-81
2022/10/30 08:48:04;;;;;;;0.50;0.50;;;19.90;99.90;;;;;;5060616;28;20231;-78
2022/10/30 08:50:31;;;;;;;0.50;0.50;;;19.60;1.00;;;;;;5058732;28;20230;-78
2022/10/30 08:53:05;;;;;;;0.60;0.60;;;19.90;99.90;;;;;;5060831;28;20324;-81
2022/10/30 08:55:32;;;;;;;0.50;0.50;;;20.80;99.90;;;;;;5061018;28;20229;-77
2022/10/30 08:57:58;;;;;;;0.60;0.60;;;21.80;99.90;;;;;;5057388;28;20179;-79
2022/10/30 09:00:24;;;;;;;0.50;0.50;;;22.60;1.00;;;;;;5057913;28;20691;-79
2022/10/30 09:02:49;;;;;;;0.60;0.60;;;22.20;1.00;;;;;;5056896;28;20167;-79
2022/10/30 09:05:15;;;;;;;0.43;0.43;;;22.50;1.00;;;;;;5059126;28;20659;-78
2022/10/30 09:07:41;;;;;;;0.60;0.60;;;22.90;1.00;;;;;;5061715;28;20175;-78
2022/10/30 09:10:07;;;;;;;0.50;0.50;;;23.10;1.00;;;;;;5058404;28;20189;-79
2022/10/30 09:12:33;;;;;;;0.47;0.47;;;22.80;1.00;;;;;;5043865;28;20190;-79
2022/10/30 09:14:58;;;;;;;0.30;0.30;;;22.80;1.00;;;;;;5050172;28;20179;-78
2022/10/30 09:17:24;;;;;;;0.23;0.23;;;23.20;1.00;;;;;;5060376;28;20183;-79
2022/10/30 09:19:49;;;;;;;0.50;0.50;;;23.00;1.00;;;;;;5044091;28;20242;-76
2022/10/30 09:22:15;;;;;;;0.30;0.30;;;22.60;1.00;;;;;;5059845;28;20611;-78
2022/10/30 09:24:41;;;;;;;0.30;0.30;;;23.00;1.00;;;;;;5057372;28;20254;-79
2022/10/30 09:27:06;;;;;;;0.20;0.20;;;23.60;1.00;;;;;;5054969;28;20689;-79
2022/10/30 09:29:32;;;;;;;0.10;0.10;;;23.40;1.00;;;;;;5054609;28;20582;-77
2022/10/30 09:31:58;;;;;;;0.50;0.50;;;23.60;1.00;;;;;;5059437;28;20203;-78
2022/10/30 09:34:23;;;;;;;0.20;0.20;;;23.20;1.00;;;;;;5056088;28;20183;-78
2022/10/30 09:36:49;;;;;;;0.13;0.13;;;23.80;1.00;;;;;;5037681;28;20180;-78
2022/10/30 09:39:15;;;;;;;0.40;0.40;;;23.50;1.00;;;;;;5049211;28;20211;-78
2022/10/30 09:42:12;;;;;;;0.40;0.40;;;23.50;1.00;;;;;;5046475;28;20222;-80
2022/10/30 09:45:04;;;;;;;0.30;0.30;;;23.50;1.00;;;;;;5050381;28;20198;-81
2022/10/30 09:47:47;;;;;;;0.40;0.40;;;23.40;1.00;;;;;;5049179;28;20183;-80
2022/10/30 09:50:24;;;;;;;0.40;0.40;;;24.50;1.00;;;;;;5054518;28;20182;-80
2022/10/30 09:53:01;;;;;;;0.20;0.20;;;24.60;1.00;;;;;;5048460;28;20171;-79
2022/10/30 09:55:40;;;;;;;0.20;0.20;;;25.00;1.00;;;;;;5044044;28;20202;-82
2022/10/30 09:58:17;;;;;;;0.20;0.20;;;25.70;1.00;;;;;;5049115;28;20175;-81
2022/10/30 10:00:51;;;;;;;0.20;0.20;;;25.80;1.00;;;;;;5048940;28;20305;-80
2022/10/30 10:03:30;;;;;;;0.13;0.13;;;25.40;1.00;;;;;;5036011;28;20186;-79
2022/10/30 10:05:59;;;;;;;0.20;0.20;;;25.60;1.00;;;;;;5050051;28;20240;-80
2022/10/30 10:08:43;;;;;;;0.15;0.15;;;25.70;1.00;;;;;;5052458;28;20180;-80
2022/10/30 10:11:18;;;;;;;0.20;0.20;;;26.20;1.00;;;;;;5054753;28;20216;-79
2022/10/30 10:13:49;;;;;;;0.17;0.17;;;26.10;1.00;;;;;;5183246;22;20353;-87
2022/10/30 10:16:18;;;;;;;0.10;0.10;;;25.80;1.00;;;;;;5116090;28;20211;-87
2022/10/30 10:18:47;;;;;;;0.28;0.28;;;25.40;1.00;;;;;;5113921;28;20189;-87
2022/10/30 10:21:22;;;;;;;0.30;0.30;;;25.00;1.00;;;;;;5115125;28;20218;-86
2022/10/30 10:23:49;;;;;;;0.10;0.10;;;25.60;1.00;;;;;;5112816;28;20204;-88
2022/10/30 10:26:34;;;;;;;0.22;0.22;;;25.40;1.00;;;;;;5115418;28;20178;-86
2022/10/30 10:29:15;;;;;;;0.10;0.10;;;25.90;1.00;;;;;;5119284;28;20636;-84
2022/10/30 10:31:58;;;;;;;0.20;0.20;;;25.60;1.00;;;;;;5111818;28;20196;-83
2022/10/30 10:34:48;;;;;;;0.20;0.20;;;25.30;1.00;;;;;;5115606;28;20181;-83
2022/10/30 10:37:26;;;;;;;0.50;0.50;;;26.10;1.00;;;;;;5115891;28;20349;-81
2022/10/30 10:40:16;;;;;;;0.30;0.30;;;25.60;1.00;;;;;;5113009;28;20175;-84
2022/10/30 10:42:59;;;;;;;0.30;0.30;;;25.90;1.00;;;;;;5117134;28;20637;-80
2022/10/30 10:45:49;;;;;;;0.40;0.40;;;26.40;1.00;;;;;;5116891;28;20191;-81
2022/10/30 10:48:30;;;;;;;0.30;0.30;;;26.20;1.00;;;;;;5113785;28;20188;-79
2022/10/30 10:51:01;;;;;;;0.57;0.57;;;27.30;1.00;;;;;;5123277;28;20212;-79
2022/10/30 10:53:36;;;;;;;0.50;0.50;;;27.20;1.00;;;;;;5113689;28;20242;-79
2022/10/30 10:56:01;;;;;;;0.30;0.30;;;27.30;1.00;;;;;;5134574;28;20660;-81
2022/10/30 10:58:33;;;;;;;0.43;0.43;;;27.30;1.00;;;;;;5134564;28;20197;-79
2022/10/30 11:00:59;;;;;;;0.20;0.20;;;27.30;1.00;;;;;;5131287;28;20197;-79
2022/10/30 11:03:51;;;;;;;0.40;0.40;;;27.90;1.00;;;;;;5123871;28;20253;-79
2022/10/30 11:06:20;;;;;;;0.22;0.22;;;27.60;1.00;;;;;;5107401;28;20224;-80
2022/10/30 11:08:46;;;;;;;0.20;0.20;;;27.70;1.00;;;;;;5119423;28;20305;-78
2022/10/30 11:11:13;;;;;;;0.03;0.03;;;28.50;1.00;;;;;;5118479;28;20197;-78
2022/10/30 11:13:41;;;;;;;0.10;0.10;;;29.10;1.00;;;;;;5119496;28;20185;-79
2022/10/30 11:16:29;;;;;;;0.10;0.10;;;28.60;1.00;;;;;;5118793;28;20188;-78
2022/10/30 11:18:58;;;;;;;0.20;0.20;;;28.30;1.00;;;;;;5121260;28;20172;-79
2022/10/30 11:21:25;;;;;;;0.40;0.40;;;28.20;1.00;;;;;;5122089;28;20680;-80
2022/10/30 11:23:52;;;;;;;0.32;0.32;;;28.90;1.00;;;;;;5124708;28;20169;-79
2022/10/30 11:26:17;;;;;;;0.20;0.20;;;28.20;1.00;;;;;;5118002;28;20675;-78
2022/10/30 11:28:51;;;;;;;0.30;0.30;;;28.80;1.00;;;;;;5114535;28;20205;-78
2022/10/30 11:31:33;;;;;;;0.32;0.32;;;28.90;1.00;;;;;;5112372;28;20210;-79
2022/10/30 11:34:23;;;;;;;0.30;0.30;;;29.20;1.00;;;;;;5117769;28;20273;-77
2022/10/30 11:36:51;;;;;;;0.20;0.20;;;28.70;1.00;;;;;;5100548;28;20704;-77
2022/10/30 11:39:31;;;;;;;0.35;0.35;;;28.00;1.00;;;;;;5120705;28;20243;-79
2022/10/30 11:42:13;;;;;;;0.30;0.30;;;28.50;1.00;;;;;;5115454;28;20238;-78
2022/10/30 11:44:49;;;;;;;0.40;0.40;;;27.70;1.00;;;;;;5114366;28;20196;-79
2022/10/30 11:47:20;;;;;;;0.40;0.40;;;26.90;1.00;;;;;;5120125;28;20176;-80
2022/10/30 11:49:53;;;;;;;0.70;0.70;;;27.00;1.00;;;;;;5111917;28;20209;-80
2022/10/30 11:52:23;;;;;;;0.70;0.70;;;26.90;1.00;;;;;;5118290;28;20198;-81
2022/10/30 11:54:56;;;;;;;0.60;0.60;;;26.50;1.00;;;;;;5114855;28;20726;-81
2022/10/30 11:57:42;;;;;;;0.60;0.60;;;26.60;1.00;;;;;;5109471;28;20261;-80
2022/10/30 12:00:19;;;;;;;0.50;0.50;;;26.90;1.00;;;;;;5112810;28;20169;-81
2022/10/30 12:02:50;;;;;;;0.63;0.63;;;27.00;1.00;;;;;;5115039;28;20529;-79
2022/10/30 12:05:24;;;;;;;0.52;0.52;;;26.80;1.00;;;;;;5107398;28;20588;-79
2022/10/30 12:07:50;;;;;;;0.60;0.60;;;27.00;1.00;;;;;;5109716;28;20180;-79
2022/10/30 12:10:26;;;;;;;0.63;0.63;;;26.80;1.00;;;;;;5115999;28;20241;-79
2022/10/30 12:12:52;;;;;;;0.60;0.60;;;26.60;1.00;;;;;;5116346;28;20179;-79
2022/10/30 12:15:22;;;;;;;0.60;0.60;;;26.60;1.00;;;;;;5110270;28;20189;-78
2022/10/30 12:17:53;;;;;;;0.53;0.53;;;26.80;1.00;;;;;;5118753;28;20202;-81
2022/10/30 12:20:19;;;;;;;0.60;0.60;;;26.80;1.00;;;;;;5103061;28;20206;-80
2022/10/30 12:22:45;;;;;;;0.50;0.50;;;27.00;1.00;;;;;;5115836;28;20262;-78
2022/10/30 12:25:28;;;;;;;0.60;0.60;;;27.40;1.00;;;;;;5114521;28;20623;-79
2022/10/30 12:28:02;;;;;;;0.70;0.70;;;26.80;1.00;;;;;;5112498;28;20176;-77
2022/10/30 12:30:33;;;;;;;0.60;0.60;;;26.50;1.00;;;;;;5119616;28;20208;-79
2022/10/30 12:33:04;;;;;;;0.60;0.60;;;26.80;1.00;;;;;;5106833;28;20574;-77
2022/10/30 12:35:48;;;;;;;0.60;0.60;;;26.80;1.00;;;;;;5119237;28;20173;-79
2022/10/30 12:38:54;;;;;;;0.70;0.70;;;26.80;1.00;;;;;;5118865;28;20265;-85
2022/10/30 12:41:28;;;;;;;0.70;0.70;;;27.00;1.00;;;;;;5112739;28;20213;-81
2022/10/30 12:44:07;;;;;;;0.57;0.57;;;27.10;1.00;;;;;;5118561;28;20180;-79
2022/10/30 12:46:39;;;;;;;0.67;0.67;;;27.30;1.00;;;;;;5123218;28;20184;-79
2022/10/30 12:49:18;;;;;;;0.50;0.50;;;26.90;1.00;;;;;;5120296;28;20205;-84
2022/10/30 12:51:50;;;;;;;0.80;0.80;;;26.90;1.00;;;;;;5119028;28;20213;-81
2022/10/30 12:54:53;;;;;;;0.50;0.50;;;26.50;1.00;;;;;;5119742;28;20233;-83
2022/10/30 12:57:40;;;;;;;0.53;0.53;;;26.20;1.00;;;;;;5061844;28;20181;-79
2022/10/30 13:00:13;;;;;;;0.53;0.53;;;26.20;1.00;;;;;;5118966;28;20192;-81
2022/10/30 13:02:46;;;;;;;0.53;0.53;;;26.10;1.00;;;;;;5116787;28;20661;-81
2022/10/30 13:05:23;;;;;;;0.53;0.53;;;26.20;1.00;;;;;;5117593;28;20272;-82